Lepel, Belarus
Current Conditions -  °F | °C
As of 8:00 AM on Thursday 23 Oct 2014 (Local Time) from UMII Reporting Station
Clear Clear  
Wind Chill:   Ceiling: Unl
Heat Index: 14°   Visibility: 6mi
Dew Point:   Wind: 9mph
Humidity: 79%   Direction: 40°NE
Pressure: 30.33"   Gusts: 16mph
Location:  54.89°N, 28.7°E
Report Text: UMII 230600Z 04004G07MPS CAVOK M10/M13 Q1027 NOSIG
Loading
Personal Weather Stations






























Interactive Weather Map
Tropical Storm Tracking
New forecast layout! Learn more

10-Day Weather Forecast

Advertisements
Track Severe Weather on mobile